Tallinn, Estonia

1:46 PM EEST on July 24, 2016 (GMT +0300)
Ulemiste | | Change Station

Elev 131 ft 59.41 °N, 24.83 °E | Updated 26 minutes ago

Mostly Cloudy
Mostly Cloudy
70 °F
Feels Like 70 °F
N
9
Wind Variable Wind from NW

Today
High -- | Low -- °F
--% Chance of Precip.
Yesterday
High -- | Low -- °F
Precip. -- in
Pressure 30.15 in
Visibility 6.2 miles
Clouds Few 2300 ft
Mostly Cloudy 4600 ft
Dew Point 63 °F
Humidity 78%
Rainfall 0.00 in
Snow Depth Not available.
4:48 AM 10:04 PM
Waning Gibbous, 77% visible
METAR EETN 241020Z 32008KT 9999 FEW023 BKN046 21/17 Q1021 NOSIG
Pressure 30.15 in
Visibility 6.2 miles
Clouds Few 2300 ft
Mostly Cloudy 4600 ft
Dew Point 63 °F
Humidity 78%
Rainfall 0.00 in
Snow Depth Not available.
4:48 AM 10:04 PM
Waning Gibbous, 77% visible
METAR EETN 241020Z 32008KT 9999 FEW023 BKN046 21/17 Q1021 NOSIG

10-Day Weather Forecast

×

Almanac

Astronomy

Jul. 24, 2016 Rise Set
Actual Time
Civil Twilight
Nautical Twilight
Astronomical Twilight
Moon
Length of Visible Light
Length of Day
Tomorrow will be .
, % of the Moon is Illuminated

Today's Extremes

Country Highs Country Lows

Community

WunderPhotos

Upload Photos

1,927,039 photos uploaded!

WunderBlog® & News

Nearby

Air Quality

  Air Quality AQ Index Pollutant
Not available.

Snow Depth

Station Depth Elevation

Earthquake Activity

City Distance Mag. Time & Date
Minimum magnitude displayed is 2.5.

Coastal Water Temperatures

Place Temperature

Stations

Nearby Weather Stations

Station Location Temp. Windchill Dew Point Humidity Wind Precip. Elev Updated Type